Time;durP1;ratioP1;P1;durP2;ratioP2;P2;SDS_P1;SDS_P2;PMS_P1;PMS_P2;Temp;Humidity;BMP_temperature;BMP_pressure;BME280_temperature;BME280_humidity;BME280_pressure;Samples;Min_cycle;Max_cycle;Signal;HPM_P1;HPM_P2
2021/11/26 18:46:29;;;;;;;140.20;63.15;;;;;;;3.53;97.21;98719.47;5310240;54;46239;-78
2021/11/26 18:51:34;;;;;;;145.97;60.23;;;;;;;3.46;97.56;98727.44;5143249;56;1134761;-78
2021/11/26 18:56:40;;;;;;;129.57;53.67;;;;;;;3.38;97.09;98728.48;5155296;56;1139050;-76
2021/11/26 19:01:45;;;;;;;116.47;51.33;;;;;;;3.31;97.33;98722.92;5196400;56;1138992;-80
2021/11/26 19:06:51;;;;;;;133.37;51.17;;;;;;;3.29;97.14;98722.67;5184309;56;1139088;-75
2021/11/26 19:11:57;;;;;;;137.27;57.07;;;;;;;3.26;96.98;98719.81;5195954;55;1139063;-80
2021/11/26 19:17:03;;;;;;;136.63;63.73;;;;;;;3.31;97.45;98712.47;5190648;55;1138984;-72
2021/11/26 19:22:09;;;;;;;130.00;59.63;;;;;;;3.28;96.92;98717.09;5204289;55;1138982;-73
2021/11/26 19:27:15;;;;;;;165.03;77.27;;;;;;;3.13;96.49;98717.31;5195806;56;1138922;-78
2021/11/26 19:32:21;;;;;;;165.77;74.53;;;;;;;3.00;96.80;98711.83;5190011;56;1139026;-79
2021/11/26 19:37:26;;;;;;;183.87;79.60;;;;;;;2.96;96.95;98713.83;5153861;56;1139314;-81
2021/11/26 19:42:32;;;;;;;210.43;88.63;;;;;;;3.00;97.51;98711.83;5161638;56;1138362;-81
2021/11/26 19:47:38;;;;;;;224.77;94.07;;;;;;;3.11;97.97;98711.84;5132233;57;1137004;-82
2021/11/26 19:52:45;;;;;;;187.90;87.20;;;;;;;3.06;97.28;98717.40;5147627;56;1136845;-82
2021/11/26 19:57:53;;;;;;;195.17;88.07;;;;;;;2.95;97.33;98705.63;5165606;57;1136935;-81
2021/11/26 20:02:59;;;;;;;144.57;63.70;;;;;;;2.94;97.78;98712.27;5094768;57;1136890;-81
2021/11/26 20:08:05;;;;;;;144.50;64.87;;;;;;;2.88;97.51;98709.67;5096594;58;1136972;-83
2021/11/26 20:13:10;;;;;;;188.83;80.97;;;;;;;2.81;97.21;98701.92;5175414;57;1137386;-81
2021/11/26 20:18:17;;;;;;;144.07;66.45;;;;;;;2.73;97.10;98701.20;5157963;57;1138900;-81
2021/11/26 20:23:23;;;;;;;179.68;77.47;;;;;;;2.68;97.36;98699.41;5105350;57;1138910;-82
2021/11/26 20:28:29;;;;;;;139.27;61.90;;;;;;;2.67;97.95;98695.13;5075824;57;1136948;-81
2021/11/26 20:33:35;;;;;;;154.50;71.83;;;;;;;2.62;98.07;98688.58;5147297;57;1136945;-83
2021/11/26 20:38:40;;;;;;;180.70;79.23;;;;;;;2.59;98.70;98677.91;5088102;57;1136927;-82
2021/11/26 20:43:46;;;;;;;210.47;93.70;;;;;;;2.67;99.33;98674.25;5097800;57;1137233;-81
2021/11/26 20:48:53;;;;;;;271.32;106.05;;;;;;;2.78;99.40;98668.21;5184755;57;1136987;-82
2021/11/26 20:53:59;;;;;;;243.80;101.10;;;;;;;2.90;99.55;98667.78;5195792;57;1141181;-81
2021/11/26 20:59:06;;;;;;;250.33;102.27;;;;;;;2.96;99.59;98662.91;5195672;57;1139247;-82
2021/11/26 21:04:12;;;;;;;214.23;88.03;;;;;;;2.97;99.49;98659.83;5195680;57;1139013;-82
2021/11/26 21:09:21;;;;;;;201.33;83.70;;;;;;;2.93;99.21;98658.39;5195779;57;1136912;-82
2021/11/26 21:14:27;;;;;;;211.23;81.60;;;;;;;2.94;99.29;98643.08;5049501;57;1134999;-82
2021/11/26 21:19:33;;;;;;;139.63;58.67;;;;;;;2.94;99.15;98638.69;5097120;57;1134887;-82
2021/11/26 21:24:39;;;;;;;124.53;54.20;;;;;;;2.81;98.83;98630.97;5129624;56;1139041;-82
2021/11/26 21:29:45;;;;;;;119.25;50.55;;;;;;;2.74;99.41;98638.09;5046692;58;1138935;-81
2021/11/26 21:34:51;;;;;;;132.70;53.28;;;;;;;2.71;99.64;98635.23;5051070;57;1139236;-81
2021/11/26 21:40:03;;;;;;;166.45;73.17;;;;;;;2.76;99.63;98636.16;5183042;57;1138958;-83
2021/11/26 21:45:12;;;;;;;146.50;63.33;;;;;;;2.72;99.28;98631.68;5163787;57;1141202;-83
2021/11/26 21:50:24;;;;;;;99.03;45.17;;;;;;;2.68;99.48;98628.94;5156073;57;1141107;-83
2021/11/26 21:55:30;;;;;;;104.57;51.43;;;;;;;2.69;100.00;98616.24;5036340;58;1136834;-83
2021/11/26 22:00:38;;;;;;;128.33;56.90;;;;;;;2.69;100.00;98616.24;5038026;58;1141045;-83
2021/11/26 22:05:44;;;;;;;150.50;65.73;;;;;;;2.73;100.00;98618.16;5062635;55;1141176;-83
2021/11/26 22:10:50;;;;;;;151.53;64.47;;;;;;;2.68;100.00;98608.05;5185859;56;1141095;-83
2021/11/26 22:15:56;;;;;;;139.60;61.97;;;;;;;2.64;99.96;98605.78;5135924;57;1141101;-83
2021/11/26 22:21:02;;;;;;;140.20;65.63;;;;;;;2.67;100.00;98605.55;5153406;57;1138941;-83
2021/11/26 22:26:10;;;;;;;148.90;67.60;;;;;;;2.78;100.00;98593.34;5141262;57;1143585;-83
2021/11/26 22:31:16;;;;;;;146.60;66.30;;;;;;;2.83;100.00;98589.09;5133657;57;1141156;-83
2021/11/26 22:36:22;;;;;;;149.03;65.73;;;;;;;2.76;100.00;98589.18;5134855;57;1140792;-84
2021/11/26 22:41:30;;;;;;;150.53;64.90;;;;;;;2.70;100.00;98586.59;5125932;57;1141080;-83
2021/11/26 22:46:35;;;;;;;128.10;55.63;;;;;;;2.63;100.00;98587.16;5130610;56;1141171;-83
2021/11/26 22:51:42;;;;;;;133.55;58.98;;;;;;;2.67;100.00;98581.59;5121802;57;1141239;-83
2021/11/26 22:56:48;;;;;;;121.57;52.07;;;;;;;2.81;100.00;98577.45;5092010;58;1143104;-83
2021/11/26 23:01:54;;;;;;;116.37;50.40;;;;;;;2.95;100.00;98571.64;5070561;58;1141229;-83
2021/11/26 23:07:00;;;;;;;122.80;53.70;;;;;;;2.96;100.00;98564.99;5016534;58;1141402;-82
2021/11/26 23:12:07;;;;;;;94.73;46.27;;;;;;;2.94;100.00;98569.97;5023213;57;1140990;-85
2021/11/26 23:17:13;;;;;;;109.33;46.20;;;;;;;2.91;100.00;98563.20;5051378;58;1139110;-85
2021/11/26 23:22:18;;;;;;;125.50;52.10;;;;;;;2.95;100.00;98569.03;5037418;58;1141228;-84
2021/11/26 23:27:24;;;;;;;173.53;63.63;;;;;;;3.00;100.00;98559.89;5035656;58;1141191;-85
2021/11/26 23:32:30;;;;;;;143.47;57.33;;;;;;;3.05;100.00;98561.69;5035802;58;1141179;-85
2021/11/26 23:37:36;;;;;;;176.27;62.57;;;;;;;3.00;100.00;98554.67;5068709;58;1141133;-84
2021/11/26 23:42:42;;;;;;;196.57;64.33;;;;;;;2.97;100.00;98546.24;5099756;57;1141114;-84
2021/11/26 23:47:49;;;;;;;190.43;68.77;;;;;;;2.99;100.00;98539.13;5099686;57;1141158;-84
2021/11/26 23:52:55;;;;;;;188.63;67.33;;;;;;;3.00;100.00;98533.78;5099649;57;1143365;-84
2021/11/26 23:58:02;;;;;;;159.37;61.97;;;;;;;3.02;100.00;98534.97;5099744;57;1141208;-84
